DUNK1: Neosho River Nr Dunlap, KS

                                SHEF ID:       DUNK1     NEOSHO R NR DUNLAP, KS
STATION TYPE:
Regulating: Stage = 26.00, Flow = 6358

PRECIP STAGE RIV-FLOW BAT-LOAD
in ft cfs volt
Ccp-Rev Ccp-Rev Ccp-Rev Ccp-Rev
(America/Chicago)
04/28 00:00 0.00 18.01 1796 12.24
04/28 01:00 0.00 17.16 1543 12.21
04/28 02:00 0.00 16.49 1343 12.19
04/28 03:00 0.00 15.96 1185 12.16
04/28 04:00 0.00 15.56 1066 12.13
04/28 05:00 0.00 15.26 976 12.08
04/28 06:00 0.00 15.01 902 12.05
04/28 07:00 0.00 14.81 842 12.00
04/28 08:00 0.00 14.65 794 12.45
04/28 09:00 0.00 14.50 750 13.41
04/28 10:00 0.00 14.36 708 13.64
04/28 11:00 0.00 14.25 679 13.55
04/28 12:00 0.00 14.15 656 13.36
04/28 13:00 0.00 14.06 636 13.62
04/28 14:00 0.00 13.97 615 13.96
04/28 15:00 0.00 13.91 601 13.35
04/28 16:00 0.00 13.83 583 13.19
04/28 17:00 0.00 13.78 572 13.01
04/28 18:00 0.00 13.91 601 12.99
04/28 19:00 0.00 14.25 679 12.84
04/28 20:00 0.00 14.60 779 12.75
04/28 21:00 0.00 14.83 848 12.38
04/28 22:00 0.00 14.94 881 12.27
04/28 23:00 0.00 14.99 896 12.24
Data processed at Wed 29Apr2026 04:44 GMT

NOTICE: If you are parsing this page

Please convert to using our Data API. Starting early 2026 we will be migrating to: https://water.usace.army.mil with modern pages rendered in JavaScript. When this migration completes you will no longer be able to scrape this page! CWMSDataAPI (CDA)

Timeseries IDs (TSIDs)

TSIDs used from left to right in the data table
DUNL.Precip-Inc.Total.1Hour.1Hour.Ccp-Rev
DUNL.Stage.Inst.1Hour.0.Ccp-Rev
DUNL.Flow.Inst.1Hour.0.Ccp-Rev
DUNL.Volt-Battery Load.Inst.1Hour.0.Ccp-Rev

                            

All information presented herein is the property of the government of the United States of America and may be revised or deleted at any time without prior notice. Dissemination of this information without the expressed written consent of the Public Affairs Office, Tulsa District U.S. Army Corps of Engineers is strictly prohibited. These data are gathered electronically and, as presented, have NOT undergone any form of quality control. These data are NOT guaranteed to be valid or correct.